Terminal Aerodrome Forecast
Issued by NWS

Home | Current Version | Previous Version | Graphics & Text | Print | Product List | Glossary On
Versions: 1 2 3 4 5 6 7 8 9 10 11 12 13 14 15
000
FTUS42 KMHX 180500 RRA
TAFPGV
TAF
KPGV 180551Z 1806/1906 00000KT 3SM BR SCT250
      TEMPO 1806/1809 2SM BR BKN005
     FM180900 34005KT P6SM SCT150
      AMD LTD TO CLD VIS AND WIND=

USA.gov is the U.S. government's official web portal to all federal, state and local government web resources and services.